首页
METAR-TAF:

METAR-TAF

机场 :

塞米伊, 哈萨克斯坦

纬度: 50-21-05N, 经度: 080-14-04E, 海拔: 232米

当前天气观测

该预报发布于33分钟前的01:30 UTC
风速2节,风向多变
温度 18°C
湿度 39%
气压 1016 hPa
能见度10公里或以上
1500米以下无云,无积雨云

METAR: UASS 310130Z VRB01MPS CAVOK 18/04 Q1016 R26/0///60 NOSIG RMK QFE744/0992

时间: 08:03 (02:03 UTC)

预报

该预报发布于3小时和3分钟前的23:00 UTC
预报有效从31日的 00点(UTC)到 31日的 09点(UTC)
风速10节,风向西
能见度10公里或以上
1500米以下无云,无积雨云
短暂存在
从 31日的 00点(UTC)到 31日的 06点(UTC)
风速4节,风向多变

TAF: UASS 302300Z 3100/3109 28005MPS CAVOK TEMPO 3100/3106 VRB02MPS

超过4000个机场的气象观测和天气预报(METAR&TAF报告)。

可查询的气象台以黄色和红色小点在地图上表示。

将鼠标移到小点上方,可查看气象台名称。

然后点击查看天气观测和预报。

如需切换地图:点击带黑十字的绿色按钮放大地图;点击带横线的绿色按钮缩小地图;或者点击绿色箭头查看邻近地区的地图。


METAR-TAF: